createdAt,value
2023-01-08T00:00:10.040Z,62.92
2023-01-08T00:02:40.846Z,62.08
2023-01-08T00:05:11.436Z,62.39
2023-01-08T00:07:39.293Z,63.75
2023-01-08T00:10:07.885Z,63.77
2023-01-08T00:12:35.692Z,64.43
2023-01-08T00:15:05.241Z,65.33
2023-01-08T00:17:32.974Z,66.84
2023-01-08T00:20:00.691Z,67.91
2023-01-08T00:22:28.423Z,68.16
2023-01-08T00:24:56.187Z,67.89
2023-01-08T00:27:23.923Z,68.46
2023-01-08T00:29:51.698Z,67.18
2023-01-08T00:32:20.835Z,64.94
2023-01-08T00:34:49.048Z,63.49
2023-01-08T00:37:18.920Z,61.85
2023-01-08T00:39:46.709Z,63.86
2023-01-08T00:42:14.443Z,66.03
2023-01-08T00:44:42.231Z,64.99
2023-01-08T00:47:09.992Z,63.27
2023-01-08T00:49:39.114Z,63.11
2023-01-08T00:52:07.759Z,64.55
2023-01-08T00:54:35.598Z,65.06
2023-01-08T00:57:03.314Z,65.34
2023-01-08T00:59:31.063Z,63.94
2023-01-08T01:01:58.858Z,63.29
2023-01-08T01:04:27.117Z,66.72
2023-01-08T01:06:56.295Z,63.32
2023-01-08T01:09:24.018Z,65.28
2023-01-08T01:11:51.866Z,67.99
2023-01-08T01:14:19.759Z,64.34
2023-01-08T01:16:48.629Z,62.76
2023-01-08T01:19:16.714Z,63.16
2023-01-08T01:21:45.412Z,64.25
2023-01-08T01:24:15.741Z,63.87
2023-01-08T01:26:43.557Z,63.31
2023-01-08T01:29:11.269Z,63.29
2023-01-08T01:31:39.076Z,61.97
2023-01-08T01:34:06.834Z,61.77
2023-01-08T01:36:34.608Z,62.71
2023-01-08T01:39:02.377Z,62.60
2023-01-08T01:41:37.567Z,62.26
2023-01-08T01:44:37.587Z,61.41
2023-01-08T01:47:11.786Z,66.11
2023-01-08T01:49:41.895Z,66.73
2023-01-08T01:52:10.876Z,67.40
2023-01-08T01:54:38.784Z,67.04
2023-01-08T01:57:09.436Z,67.06
2023-01-08T01:59:37.230Z,67.85
2023-01-08T02:02:05.401Z,67.67
2023-01-08T02:04:33.200Z,61.99
2023-01-08T02:07:08.219Z,65.78
2023-01-08T02:09:44.454Z,66.13
2023-01-08T02:12:19.160Z,64.56
2023-01-08T02:15:00.243Z,66.35
2023-01-08T02:17:37.737Z,65.72
2023-01-08T02:20:12.605Z,66.10
2023-01-08T02:22:49.217Z,64.91
2023-01-08T02:25:26.066Z,66.90
2023-01-08T02:27:58.133Z,67.13
2023-01-08T02:30:26.612Z,62.70
2023-01-08T02:32:54.430Z,63.23
2023-01-08T02:35:22.399Z,61.89
2023-01-08T02:37:50.303Z,62.89
2023-01-08T02:40:28.795Z,64.52
2023-01-08T02:43:03.980Z,64.55
2023-01-08T02:45:40.000Z,67.70
2023-01-08T02:48:12.526Z,69.03
2023-01-08T02:50:44.353Z,71.32
2023-01-08T02:53:16.608Z,68.48
2023-01-08T02:55:47.942Z,67.59
2023-01-08T02:58:17.777Z,73.53
2023-01-08T03:00:47.824Z,73.85
2023-01-08T03:03:18.520Z,73.78
2023-01-08T03:05:50.898Z,74.89
2023-01-08T03:08:19.605Z,74.81
2023-01-08T03:10:52.328Z,76.04
2023-01-08T03:13:26.352Z,75.53
2023-01-08T03:15:58.424Z,76.31
2023-01-08T03:18:32.080Z,76.32
2023-01-08T03:20:59.896Z,76.75
2023-01-08T03:23:29.127Z,75.02
2023-01-08T03:25:58.345Z,75.98
2023-01-08T03:28:32.843Z,77.00
2023-01-08T03:31:02.181Z,77.21
2023-01-08T03:33:32.875Z,77.67
2023-01-08T03:36:04.680Z,77.20
2023-01-08T03:38:37.797Z,77.81
2023-01-08T03:41:10.928Z,79.05
2023-01-08T03:43:40.056Z,79.18
2023-01-08T03:46:12.942Z,79.46
2023-01-08T03:48:42.257Z,79.82
2023-01-08T03:51:10.379Z,79.90
2023-01-08T03:53:38.420Z,79.49
2023-01-08T03:56:06.790Z,79.96
2023-01-08T03:58:34.579Z,79.89
2023-01-08T04:01:03.781Z,79.67
2023-01-08T04:03:31.556Z,79.42
2023-01-08T04:06:00.622Z,80.23
2023-01-08T04:08:28.620Z,77.99
2023-01-08T04:10:56.395Z,79.16
2023-01-08T04:13:24.113Z,79.43
2023-01-08T04:15:52.581Z,79.85
2023-01-08T04:18:21.835Z,79.30
2023-01-08T04:20:49.572Z,78.18
2023-01-08T04:23:17.533Z,79.76
2023-01-08T04:25:45.362Z,79.47
2023-01-08T04:28:13.397Z,78.35
2023-01-08T04:30:41.275Z,78.82
2023-01-08T04:33:09.063Z,79.26
2023-01-08T04:35:38.393Z,79.72
2023-01-08T04:38:06.282Z,77.43
2023-01-08T04:40:34.303Z,78.48
2023-01-08T04:43:02.063Z,76.83
2023-01-08T04:45:29.812Z,77.62
2023-01-08T04:47:57.920Z,78.09
2023-01-08T04:50:26.299Z,76.96
2023-01-08T04:52:55.417Z,78.06
2023-01-08T04:55:23.371Z,78.04
2023-01-08T04:57:51.098Z,75.41
2023-01-08T05:00:19.199Z,76.67
2023-01-08T05:02:47.090Z,77.57
2023-01-08T05:05:15.325Z,78.86
2023-01-08T05:07:43.065Z,78.17
2023-01-08T05:10:12.415Z,77.50
2023-01-08T05:12:40.092Z,77.69
2023-01-08T05:15:09.023Z,77.20
2023-01-08T05:17:36.832Z,76.18
2023-01-08T05:20:04.984Z,75.80
2023-01-08T05:22:32.701Z,74.95
2023-01-08T05:25:00.471Z,75.81
2023-01-08T05:27:30.517Z,77.49
2023-01-08T05:29:58.216Z,77.11
2023-01-08T05:32:25.929Z,76.59
2023-01-08T05:34:53.678Z,77.51
2023-01-08T05:37:21.447Z,72.53
2023-01-08T05:39:49.183Z,72.26
2023-01-08T05:42:16.962Z,74.10
2023-01-08T05:44:46.059Z,69.24
2023-01-08T05:47:13.844Z,66.46
2023-01-08T05:49:41.622Z,65.50
2023-01-08T05:52:09.374Z,63.63
2023-01-08T05:54:37.125Z,65.80
2023-01-08T05:57:05.294Z,65.03
2023-01-08T05:59:33.054Z,64.18
2023-01-08T06:02:02.206Z,64.50
2023-01-08T06:04:30.040Z,65.71
2023-01-08T06:06:57.844Z,65.24
2023-01-08T06:09:25.605Z,64.70
2023-01-08T06:11:53.816Z,67.74
2023-01-08T06:14:21.591Z,64.86
2023-01-08T06:16:49.329Z,64.60
2023-01-08T06:19:19.178Z,64.42
2023-01-08T06:21:47.009Z,64.69
2023-01-08T06:24:14.748Z,64.02
2023-01-08T06:26:42.486Z,63.94
2023-01-08T06:29:10.264Z,63.59
2023-01-08T06:31:38.026Z,62.43
2023-01-08T06:34:05.837Z,62.69
2023-01-08T06:36:35.005Z,62.10
2023-01-08T06:39:02.753Z,65.53
2023-01-08T06:41:30.474Z,65.98
2023-01-08T06:43:58.483Z,67.70
2023-01-08T06:46:26.474Z,73.29
2023-01-08T06:48:54.219Z,73.98
2023-01-08T06:51:22.199Z,71.79
2023-01-08T06:53:51.551Z,72.52
2023-01-08T06:56:19.275Z,72.53
2023-01-08T06:58:46.971Z,72.24
2023-01-08T07:01:16.390Z,71.74
2023-01-08T07:03:44.831Z,72.96
2023-01-08T07:06:16.146Z,71.61
2023-01-08T07:08:44.333Z,72.83
2023-01-08T07:11:14.102Z,72.02
2023-01-08T07:13:42.498Z,73.80
2023-01-08T07:16:12.275Z,74.53
2023-01-08T07:18:40.499Z,74.17
2023-01-08T07:21:09.303Z,73.98
2023-01-08T07:23:38.296Z,73.68
2023-01-08T07:26:08.464Z,73.38
2023-01-08T07:28:37.626Z,73.38
2023-01-08T07:31:06.220Z,72.79
2023-01-08T07:33:34.304Z,71.93
2023-01-08T07:36:02.064Z,71.58
2023-01-08T07:38:29.888Z,71.92
2023-01-08T07:40:58.874Z,71.68
2023-01-08T07:43:29.897Z,71.86
2023-01-08T07:45:59.039Z,72.62
2023-01-08T07:48:27.017Z,65.60
2023-01-08T07:50:54.889Z,70.23
2023-01-08T07:53:22.775Z,64.75
2023-01-08T07:55:50.611Z,72.57
2023-01-08T07:58:18.465Z,75.31
2023-01-08T08:00:46.448Z,76.44
2023-01-08T08:03:15.716Z,77.18
2023-01-08T08:05:43.669Z,77.75
2023-01-08T08:08:12.936Z,78.12
2023-01-08T08:10:42.120Z,78.76
2023-01-08T08:13:10.394Z,77.94
2023-01-08T08:15:39.699Z,76.79
2023-01-08T08:18:08.049Z,74.96
2023-01-08T08:20:37.338Z,74.99
2023-01-08T08:23:06.969Z,68.01
2023-01-08T08:25:35.419Z,66.62
2023-01-08T08:28:04.059Z,65.12
2023-01-08T08:30:33.252Z,65.57
2023-01-08T08:33:03.103Z,63.84
2023-01-08T08:35:31.850Z,65.63
2023-01-08T08:38:01.533Z,62.86
2023-01-08T08:40:29.575Z,64.17
2023-01-08T08:42:58.305Z,64.19
2023-01-08T08:45:26.989Z,63.07
2023-01-08T08:47:55.029Z,62.13
2023-01-08T08:50:23.135Z,64.58
2023-01-08T08:52:50.854Z,63.92
2023-01-08T08:55:20.354Z,61.30
2023-01-08T08:57:49.341Z,58.44
2023-01-08T09:00:17.674Z,60.04
2023-01-08T09:02:45.884Z,60.80
2023-01-08T09:05:13.889Z,60.33
2023-01-08T09:07:41.672Z,59.23
2023-01-08T09:10:09.953Z,59.08
2023-01-08T09:12:39.171Z,58.91
2023-01-08T09:15:07.953Z,60.39
2023-01-08T09:17:36.887Z,60.84
2023-01-08T09:20:05.312Z,59.36
2023-01-08T09:22:33.181Z,59.74
2023-01-08T09:25:01.017Z,59.84
2023-01-08T09:27:28.791Z,60.22
2023-01-08T09:29:57.984Z,60.44
2023-01-08T09:32:25.834Z,60.42
2023-01-08T09:34:53.892Z,59.34
2023-01-08T09:37:23.315Z,60.09
2023-01-08T09:40:01.676Z,60.42
2023-01-08T09:42:31.319Z,59.48
2023-01-08T09:45:03.632Z,59.69
2023-01-08T09:47:37.455Z,54.92
2023-01-08T09:50:11.573Z,56.93
2023-01-08T09:52:41.169Z,58.19
2023-01-08T09:55:14.354Z,55.21
2023-01-08T09:57:42.779Z,58.18
2023-01-08T10:00:16.163Z,54.45
2023-01-08T10:02:45.115Z,52.14
2023-01-08T10:05:15.156Z,51.24
2023-01-08T10:07:43.354Z,51.53
2023-01-08T10:10:19.563Z,51.71
2023-01-08T10:12:48.612Z,49.44
2023-01-08T10:15:21.281Z,49.27
2023-01-08T10:17:54.319Z,49.13
2023-01-08T10:20:25.016Z,50.13
2023-01-08T10:22:54.815Z,51.11
2023-01-08T10:25:24.859Z,50.03
2023-01-08T10:27:54.493Z,50.76
2023-01-08T10:30:29.807Z,52.06
2023-01-08T10:33:03.319Z,53.55
2023-01-08T10:35:35.584Z,50.30
2023-01-08T10:38:03.727Z,48.70
2023-01-08T10:40:37.981Z,46.67
2023-01-08T10:43:14.545Z,42.32
2023-01-08T10:45:44.964Z,38.38
2023-01-08T10:48:18.495Z,39.53
2023-01-08T10:50:47.832Z,37.34
2023-01-08T10:53:25.359Z,35.76
2023-01-08T10:55:59.885Z,39.06
2023-01-08T10:58:28.616Z,41.17
2023-01-08T11:01:10.926Z,41.23
2023-01-08T11:03:39.143Z,43.50
2023-01-08T11:06:14.969Z,45.61
2023-01-08T11:08:51.682Z,42.93
2023-01-08T11:11:20.381Z,46.85
2023-01-08T11:13:59.843Z,44.68
2023-01-08T11:16:38.127Z,46.67
2023-01-08T11:19:16.458Z,41.85
2023-01-08T11:21:56.038Z,42.27
2023-01-08T11:24:26.874Z,43.03
2023-01-08T11:26:58.888Z,45.39
2023-01-08T11:29:32.722Z,45.22
2023-01-08T11:32:18.227Z,44.78
2023-01-08T11:34:52.639Z,47.99
2023-01-08T11:37:22.914Z,49.35
2023-01-08T11:39:52.287Z,49.96
2023-01-08T11:42:32.654Z,46.59
2023-01-08T11:45:14.106Z,45.04
2023-01-08T11:48:06.167Z,44.06
2023-01-08T11:50:40.246Z,45.65
2023-01-08T11:53:20.119Z,44.13
2023-01-08T11:55:57.626Z,44.41
2023-01-08T11:58:36.234Z,47.49
2023-01-08T12:01:21.774Z,47.59
2023-01-08T12:04:05.392Z,49.53
2023-01-08T12:06:41.712Z,51.87
2023-01-08T12:09:18.868Z,53.82
2023-01-08T12:11:58.114Z,53.12
2023-01-08T12:14:42.289Z,53.34
2023-01-08T12:17:37.257Z,53.74
2023-01-08T12:20:17.911Z,52.87
2023-01-08T12:22:52.675Z,52.66
2023-01-08T12:25:34.758Z,52.13
2023-01-08T12:28:22.207Z,54.67
2023-01-08T12:31:08.936Z,55.01
2023-01-08T12:33:40.801Z,56.02
2023-01-08T12:36:15.339Z,54.39
2023-01-08T12:38:44.684Z,54.68
2023-01-08T12:41:14.580Z,55.52
2023-01-08T12:43:52.173Z,55.60
2023-01-08T12:46:21.421Z,52.13
2023-01-08T12:48:52.519Z,48.62
2023-01-08T12:51:29.858Z,50.49
2023-01-08T12:54:10.009Z,55.17
2023-01-08T12:56:46.799Z,55.77
2023-01-08T12:59:30.209Z,50.39
2023-01-08T13:02:05.002Z,51.16
2023-01-08T13:04:41.738Z,49.35
2023-01-08T13:07:20.091Z,48.87
2023-01-08T13:09:56.053Z,51.39
2023-01-08T13:12:34.465Z,53.94
2023-01-08T13:15:03.036Z,54.81
2023-01-08T13:17:31.132Z,53.66
2023-01-08T13:20:02.829Z,53.14
2023-01-08T13:22:34.758Z,46.83
2023-01-08T13:25:24.784Z,46.72
2023-01-08T13:27:52.764Z,46.40
2023-01-08T13:30:49.168Z,47.01
2023-01-08T13:33:29.756Z,48.28
2023-01-08T13:36:20.965Z,52.43
2023-01-08T13:39:02.127Z,54.27
2023-01-08T13:41:32.353Z,55.45
2023-01-08T13:44:04.267Z,56.09
2023-01-08T13:46:35.331Z,55.79
2023-01-08T13:49:05.958Z,55.46
2023-01-08T13:51:44.504Z,55.99
2023-01-08T13:54:22.010Z,56.48
2023-01-08T13:56:55.519Z,57.67
2023-01-08T13:59:35.462Z,57.70
2023-01-08T14:02:03.616Z,57.75
2023-01-08T14:04:31.833Z,57.72
2023-01-08T14:07:16.165Z,56.72
2023-01-08T14:09:45.437Z,58.19
2023-01-08T14:12:16.038Z,59.01
2023-01-08T14:14:50.077Z,58.54
2023-01-08T14:17:18.984Z,56.20
2023-01-08T14:19:47.376Z,53.28
2023-01-08T14:22:20.341Z,51.99
2023-01-08T14:24:56.444Z,53.00
2023-01-08T14:27:26.430Z,54.26
2023-01-08T14:29:54.889Z,54.51
2023-01-08T14:32:25.117Z,52.44
2023-01-08T14:34:54.936Z,49.20
2023-01-08T14:37:22.820Z,45.11
2023-01-08T14:39:54.649Z,44.58
2023-01-08T14:42:44.205Z,46.92
2023-01-08T14:45:20.281Z,52.54
2023-01-08T14:47:50.277Z,53.80
2023-01-08T14:50:21.615Z,54.91
2023-01-08T14:52:50.679Z,54.45
2023-01-08T14:55:22.014Z,56.52
2023-01-08T14:57:52.123Z,57.21
2023-01-08T15:00:23.568Z,56.81
2023-01-08T15:02:51.647Z,57.43
2023-01-08T15:05:21.928Z,58.08
2023-01-08T15:08:00.041Z,57.53
2023-01-08T15:10:41.059Z,57.68
2023-01-08T15:13:23.162Z,57.59
2023-01-08T15:15:57.720Z,57.60
2023-01-08T15:18:26.279Z,58.55
2023-01-08T15:20:55.260Z,58.49
2023-01-08T15:23:41.731Z,58.62
2023-01-08T15:26:15.663Z,59.31
2023-01-08T15:28:50.929Z,59.46
2023-01-08T15:31:29.754Z,57.06
2023-01-08T15:33:58.964Z,60.04
2023-01-08T15:36:27.318Z,59.85
2023-01-08T15:38:55.163Z,56.77
2023-01-08T15:41:42.672Z,59.05
2023-01-08T15:44:13.513Z,56.52
2023-01-08T15:46:41.374Z,59.78
2023-01-08T15:49:09.559Z,58.14
2023-01-08T15:51:42.439Z,60.18
2023-01-08T15:54:12.837Z,58.18
2023-01-08T15:56:42.623Z,60.51
2023-01-08T15:59:11.395Z,59.05
2023-01-08T16:01:39.644Z,59.07
2023-01-08T16:04:07.496Z,58.83
2023-01-08T16:06:36.214Z,58.97
2023-01-08T16:09:04.591Z,59.69
2023-01-08T16:11:32.355Z,58.39
2023-01-08T16:14:01.464Z,56.87
2023-01-08T16:16:29.505Z,53.89
2023-01-08T16:18:57.451Z,56.87
2023-01-08T16:21:25.243Z,58.27
2023-01-08T16:23:53.499Z,62.42
2023-01-08T16:26:21.337Z,56.76
2023-01-08T16:28:49.171Z,55.68
2023-01-08T16:31:18.382Z,59.93
2023-01-08T16:33:46.239Z,55.06
2023-01-08T16:36:14.117Z,52.95
2023-01-08T16:38:41.978Z,55.63
2023-01-08T16:41:10.514Z,61.56
2023-01-08T16:43:41.154Z,62.70
2023-01-08T16:46:13.686Z,63.80
2023-01-08T16:48:43.935Z,64.63
2023-01-08T16:51:12.774Z,64.29
2023-01-08T16:53:40.948Z,64.35
2023-01-08T16:56:09.765Z,65.14
2023-01-08T16:58:38.234Z,65.15
2023-01-08T17:01:10.959Z,65.02
2023-01-08T17:03:39.110Z,65.52
2023-01-08T17:06:10.483Z,66.49
2023-01-08T17:08:40.268Z,66.20
2023-01-08T17:11:12.882Z,66.24
2023-01-08T17:13:41.102Z,65.31
2023-01-08T17:16:11.043Z,65.69
2023-01-08T17:18:39.028Z,66.38
2023-01-08T17:21:10.209Z,66.57
2023-01-08T17:23:38.319Z,65.57
2023-01-08T17:26:09.813Z,66.59
2023-01-08T17:28:38.385Z,66.86
2023-01-08T17:31:07.959Z,67.28
2023-01-08T17:33:36.287Z,64.88
2023-01-08T17:36:12.250Z,65.04
2023-01-08T17:38:40.220Z,66.15
2023-01-08T17:41:09.018Z,66.53
2023-01-08T17:43:37.123Z,66.65
2023-01-08T17:46:05.416Z,66.09
2023-01-08T17:48:33.764Z,65.88
2023-01-08T17:51:08.619Z,65.92
2023-01-08T17:53:38.626Z,67.31
2023-01-08T17:56:07.209Z,66.94
2023-01-08T17:58:35.280Z,67.26
2023-01-08T18:01:03.282Z,67.29
2023-01-08T18:03:31.185Z,67.46
2023-01-08T18:05:59.014Z,67.03
2023-01-08T18:08:26.952Z,67.53
2023-01-08T18:10:56.109Z,67.75
2023-01-08T18:13:23.998Z,68.06
2023-01-08T18:15:51.980Z,68.45
2023-01-08T18:18:19.888Z,60.13
2023-01-08T18:20:47.895Z,65.87
2023-01-08T18:23:15.723Z,69.06
2023-01-08T18:25:43.649Z,70.04
2023-01-08T18:28:12.925Z,69.79
2023-01-08T18:30:42.062Z,70.58
2023-01-08T18:33:10.121Z,62.05
2023-01-08T18:35:37.968Z,62.77
2023-01-08T18:38:05.805Z,69.28
2023-01-08T18:40:33.866Z,70.08
2023-01-08T18:43:01.859Z,67.94
2023-01-08T18:45:35.276Z,69.01
2023-01-08T18:48:03.672Z,70.76
2023-01-08T18:50:31.496Z,71.38
2023-01-08T18:52:59.383Z,71.12
2023-01-08T18:55:27.255Z,67.45
2023-01-08T18:57:55.085Z,67.32
2023-01-08T19:00:23.825Z,58.49
2023-01-08T19:02:53.790Z,58.36
2023-01-08T19:05:22.793Z,62.86
2023-01-08T19:07:50.776Z,68.97
2023-01-08T19:10:18.872Z,70.81
2023-01-08T19:12:46.920Z,72.25
2023-01-08T19:15:14.778Z,71.97
2023-01-08T19:17:42.595Z,71.91
2023-01-08T19:20:12.695Z,72.31
2023-01-08T19:22:40.465Z,72.27
2023-01-08T19:25:09.086Z,72.13
2023-01-08T19:27:36.997Z,72.36
2023-01-08T19:30:05.348Z,72.07
2023-01-08T19:32:33.230Z,72.79
2023-01-08T19:35:01.382Z,72.57
2023-01-08T19:37:32.260Z,72.04
2023-01-08T19:40:02.875Z,68.68
2023-01-08T19:42:48.394Z,70.95
2023-01-08T19:45:19.099Z,71.80
2023-01-08T19:47:47.047Z,67.31
2023-01-08T19:50:14.866Z,70.28
2023-01-08T19:52:44.062Z,71.60
2023-01-08T19:55:11.943Z,71.37
2023-01-08T19:57:39.780Z,71.90
2023-01-08T20:00:10.543Z,71.51
2023-01-08T20:02:41.465Z,71.67
2023-01-08T20:05:10.378Z,71.00
2023-01-08T20:07:38.256Z,71.28
2023-01-08T20:10:11.084Z,70.68
2023-01-08T20:12:39.081Z,69.63
2023-01-08T20:15:07.885Z,68.80
2023-01-08T20:17:35.800Z,68.94
2023-01-08T20:20:03.807Z,68.65
2023-01-08T20:22:31.670Z,67.79
2023-01-08T20:24:59.467Z,67.82
2023-01-08T20:27:28.554Z,67.62
2023-01-08T20:29:56.471Z,67.66
2023-01-08T20:32:24.332Z,66.85
2023-01-08T20:34:52.291Z,66.26
2023-01-08T20:37:20.359Z,66.44
2023-01-08T20:39:48.354Z,67.03
2023-01-08T20:42:22.047Z,67.11
2023-01-08T20:44:57.242Z,67.27
2023-01-08T20:47:24.998Z,66.88
2023-01-08T20:49:52.847Z,66.95
2023-01-08T20:52:20.688Z,66.83
2023-01-08T20:54:48.553Z,67.20
2023-01-08T20:57:16.652Z,67.01
2023-01-08T20:59:44.547Z,66.51
2023-01-08T21:02:13.897Z,67.75
2023-01-08T21:04:43.794Z,67.80
2023-01-08T21:07:11.570Z,68.52
2023-01-08T21:09:40.437Z,68.18
2023-01-08T21:12:08.568Z,65.85
2023-01-08T21:14:36.406Z,66.83
2023-01-08T21:17:04.295Z,66.29
2023-01-08T21:19:33.568Z,65.88
2023-01-08T21:22:01.331Z,66.36
2023-01-08T21:24:29.197Z,66.72
2023-01-08T21:26:57.059Z,67.37
2023-01-08T21:29:24.923Z,67.60
2023-01-08T21:31:52.919Z,66.80
2023-01-08T21:34:21.504Z,67.48
2023-01-08T21:36:50.721Z,66.84
2023-01-08T21:39:18.713Z,67.36
2023-01-08T21:42:04.020Z,67.59
2023-01-08T21:44:49.423Z,66.85
2023-01-08T21:47:18.810Z,67.41
2023-01-08T21:49:47.549Z,65.86
2023-01-08T21:52:34.583Z,64.82
2023-01-08T21:55:02.983Z,65.65
2023-01-08T21:57:30.763Z,64.91
2023-01-08T21:59:59.685Z,66.08
2023-01-08T22:02:27.646Z,66.34
2023-01-08T22:04:56.375Z,66.74
2023-01-08T22:07:25.561Z,65.39
2023-01-08T22:09:53.536Z,65.27
2023-01-08T22:12:22.634Z,64.28
2023-01-08T22:14:50.577Z,64.69
2023-01-08T22:17:18.430Z,65.04
2023-01-08T22:19:46.282Z,65.19
2023-01-08T22:22:14.141Z,65.74
2023-01-08T22:24:43.447Z,65.43
2023-01-08T22:27:11.551Z,65.15
2023-01-08T22:29:39.361Z,54.84
2023-01-08T22:32:07.174Z,53.15
2023-01-08T22:34:35.841Z,54.90
2023-01-08T22:37:04.259Z,52.36
2023-01-08T22:39:32.627Z,53.02
2023-01-08T22:42:01.873Z,55.72
2023-01-08T22:44:29.746Z,53.99
2023-01-08T22:46:59.075Z,54.87
2023-01-08T22:49:26.907Z,55.61
2023-01-08T22:51:54.821Z,56.69
2023-01-08T22:54:22.738Z,57.06
2023-01-08T22:56:50.456Z,57.79
2023-01-08T22:59:21.051Z,57.46
2023-01-08T23:01:49.094Z,56.81
2023-01-08T23:04:17.094Z,57.83
2023-01-08T23:06:45.009Z,57.30
2023-01-08T23:09:12.843Z,57.84
2023-01-08T23:11:40.948Z,65.76
2023-01-08T23:14:09.054Z,66.78
2023-01-08T23:16:38.307Z,67.72
2023-01-08T23:19:06.656Z,71.10
2023-01-08T23:21:36.421Z,69.31
2023-01-08T23:24:04.406Z,69.88
2023-01-08T23:26:32.305Z,62.17
2023-01-08T23:29:00.655Z,57.89
2023-01-08T23:31:30.800Z,57.31
2023-01-08T23:34:00.119Z,58.60
2023-01-08T23:36:28.076Z,60.09
2023-01-08T23:38:57.045Z,59.68
2023-01-08T23:41:31.991Z,60.71
2023-01-08T23:44:01.822Z,60.50
2023-01-08T23:46:30.191Z,61.06
2023-01-08T23:48:58.168Z,61.86
2023-01-08T23:51:27.441Z,63.25
2023-01-08T23:53:55.287Z,64.80
2023-01-08T23:56:23.482Z,65.08
2023-01-08T23:58:51.337Z,62.43
